sensor_id;sensor_type;location;lat;lon;timestamp;temperature;humidity
20483;DHT22;10400;53.198;6.592;2023-09-30T00:00:45;13.20;99.90
20483;DHT22;10400;53.198;6.592;2023-09-30T00:03:10;13.30;99.90
20483;DHT22;10400;53.198;6.592;2023-09-30T00:05:37;13.20;99.90
20483;DHT22;10400;53.198;6.592;2023-09-30T00:08:04;13.20;99.90
20483;DHT22;10400;53.198;6.592;2023-09-30T00:10:30;13.20;99.90
20483;DHT22;10400;53.198;6.592;2023-09-30T00:12:56;13.20;99.90
20483;DHT22;10400;53.198;6.592;2023-09-30T00:15:22;13.20;99.90
20483;DHT22;10400;53.198;6.592;2023-09-30T00:17:48;13.20;99.90
20483;DHT22;10400;53.198;6.592;2023-09-30T00:20:14;13.20;99.90
20483;DHT22;10400;53.198;6.592;2023-09-30T00:22:43;13.20;99.90
20483;DHT22;10400;53.198;6.592;2023-09-30T00:25:09;13.20;99.90
20483;DHT22;10400;53.198;6.592;2023-09-30T00:27:36;13.20;99.90
20483;DHT22;10400;53.198;6.592;2023-09-30T00:30:02;13.20;99.90
20483;DHT22;10400;53.198;6.592;2023-09-30T00:32:28;13.20;99.90
20483;DHT22;10400;53.198;6.592;2023-09-30T00:34:54;13.20;99.90
20483;DHT22;10400;53.198;6.592;2023-09-30T00:37:20;13.20;99.90
20483;DHT22;10400;53.198;6.592;2023-09-30T00:39:46;13.20;99.90
20483;DHT22;10400;53.198;6.592;2023-09-30T00:42:11;13.20;99.90
20483;DHT22;10400;53.198;6.592;2023-09-30T00:44:37;13.20;99.90
20483;DHT22;10400;53.198;6.592;2023-09-30T00:47:03;13.20;99.90
20483;DHT22;10400;53.198;6.592;2023-09-30T00:49:29;13.10;99.90
20483;DHT22;10400;53.198;6.592;2023-09-30T00:51:55;13.10;99.90
20483;DHT22;10400;53.198;6.592;2023-09-30T00:54:23;13.10;99.90
20483;DHT22;10400;53.198;6.592;2023-09-30T00:56:51;13.10;99.90
20483;DHT22;10400;53.198;6.592;2023-09-30T00:59:18;13.00;99.90
20483;DHT22;10400;53.198;6.592;2023-09-30T01:01:45;13.00;99.90
20483;DHT22;10400;53.198;6.592;2023-09-30T01:04:12;13.00;99.90
20483;DHT22;10400;53.198;6.592;2023-09-30T01:06:38;13.00;99.90
20483;DHT22;10400;53.198;6.592;2023-09-30T01:09:04;13.00;99.90
20483;DHT22;10400;53.198;6.592;2023-09-30T01:11:30;13.00;99.90
20483;DHT22;10400;53.198;6.592;2023-09-30T01:13:56;13.00;99.90
20483;DHT22;10400;53.198;6.592;2023-09-30T01:16:23;13.00;99.90
20483;DHT22;10400;53.198;6.592;2023-09-30T01:18:49;13.00;99.90
20483;DHT22;10400;53.198;6.592;2023-09-30T01:21:15;13.00;99.90
20483;DHT22;10400;53.198;6.592;2023-09-30T01:23:40;12.90;99.90
20483;DHT22;10400;53.198;6.592;2023-09-30T01:26:09;12.90;99.90
20483;DHT22;10400;53.198;6.592;2023-09-30T01:28:35;13.00;99.90
20483;DHT22;10400;53.198;6.592;2023-09-30T01:31:01;12.90;99.90
20483;DHT22;10400;53.198;6.592;2023-09-30T01:33:27;12.90;99.90
20483;DHT22;10400;53.198;6.592;2023-09-30T01:35:54;12.90;99.90
20483;DHT22;10400;53.198;6.592;2023-09-30T01:38:20;12.90;99.90
20483;DHT22;10400;53.198;6.592;2023-09-30T01:40:46;13.00;99.90
20483;DHT22;10400;53.198;6.592;2023-09-30T01:43:12;12.90;99.90
20483;DHT22;10400;53.198;6.592;2023-09-30T01:45:42;13.00;99.90
20483;DHT22;10400;53.198;6.592;2023-09-30T01:48:09;13.00;99.90
20483;DHT22;10400;53.198;6.592;2023-09-30T01:50:38;13.00;99.90
20483;DHT22;10400;53.198;6.592;2023-09-30T01:53:05;12.90;99.90
20483;DHT22;10400;53.198;6.592;2023-09-30T01:55:32;12.90;99.90
20483;DHT22;10400;53.198;6.592;2023-09-30T01:57:58;12.90;99.90
20483;DHT22;10400;53.198;6.592;2023-09-30T02:00:24;12.90;99.90
20483;DHT22;10400;53.198;6.592;2023-09-30T02:02:49;12.90;99.90
20483;DHT22;10400;53.198;6.592;2023-09-30T02:05:15;12.80;99.90
20483;DHT22;10400;53.198;6.592;2023-09-30T02:07:41;12.80;99.90
20483;DHT22;10400;53.198;6.592;2023-09-30T02:10:07;12.80;99.90
20483;DHT22;10400;53.198;6.592;2023-09-30T02:12:33;12.90;99.90
20483;DHT22;10400;53.198;6.592;2023-09-30T02:14:58;12.90;99.90
20483;DHT22;10400;53.198;6.592;2023-09-30T02:17:24;12.90;99.90
20483;DHT22;10400;53.198;6.592;2023-09-30T02:19:50;13.00;99.90
20483;DHT22;10400;53.198;6.592;2023-09-30T02:22:15;12.90;99.90
20483;DHT22;10400;53.198;6.592;2023-09-30T02:24:41;12.90;99.90
20483;DHT22;10400;53.198;6.592;2023-09-30T02:27:07;12.90;99.90
20483;DHT22;10400;53.198;6.592;2023-09-30T02:29:33;12.90;99.90
20483;DHT22;10400;53.198;6.592;2023-09-30T02:31:59;12.90;99.90
20483;DHT22;10400;53.198;6.592;2023-09-30T02:34:25;12.90;99.90
20483;DHT22;10400;53.198;6.592;2023-09-30T02:36:50;13.00;99.90
20483;DHT22;10400;53.198;6.592;2023-09-30T02:39:17;12.90;99.90
20483;DHT22;10400;53.198;6.592;2023-09-30T02:41:43;12.90;99.90
20483;DHT22;10400;53.198;6.592;2023-09-30T02:44:09;13.00;99.90
20483;DHT22;10400;53.198;6.592;2023-09-30T02:46:34;12.90;99.90
20483;DHT22;10400;53.198;6.592;2023-09-30T02:49:03;12.90;99.90
20483;DHT22;10400;53.198;6.592;2023-09-30T02:51:29;12.90;99.90
20483;DHT22;10400;53.198;6.592;2023-09-30T02:53:56;12.90;99.90
20483;DHT22;10400;53.198;6.592;2023-09-30T02:56:21;12.90;99.90
20483;DHT22;10400;53.198;6.592;2023-09-30T02:58:52;13.00;99.90
20483;DHT22;10400;53.198;6.592;2023-09-30T03:01:18;13.00;99.90
20483;DHT22;10400;53.198;6.592;2023-09-30T03:03:44;13.00;99.90
20483;DHT22;10400;53.198;6.592;2023-09-30T03:06:11;13.00;99.90
20483;DHT22;10400;53.198;6.592;2023-09-30T03:08:37;13.00;99.90
20483;DHT22;10400;53.198;6.592;2023-09-30T03:11:03;13.10;99.90
20483;DHT22;10400;53.198;6.592;2023-09-30T03:13:30;13.00;99.90
20483;DHT22;10400;53.198;6.592;2023-09-30T03:15:56;13.00;99.90
20483;DHT22;10400;53.198;6.592;2023-09-30T03:18:22;13.00;99.90
20483;DHT22;10400;53.198;6.592;2023-09-30T03:20:57;13.00;99.90
20483;DHT22;10400;53.198;6.592;2023-09-30T03:23:26;12.90;99.90
20483;DHT22;10400;53.198;6.592;2023-09-30T03:25:59;12.90;99.90
20483;DHT22;10400;53.198;6.592;2023-09-30T03:28:26;12.90;99.90
20483;DHT22;10400;53.198;6.592;2023-09-30T03:30:52;12.90;99.90
20483;DHT22;10400;53.198;6.592;2023-09-30T03:33:17;13.00;99.90
20483;DHT22;10400;53.198;6.592;2023-09-30T03:35:43;13.00;99.90
20483;DHT22;10400;53.198;6.592;2023-09-30T03:38:11;13.00;99.90
20483;DHT22;10400;53.198;6.592;2023-09-30T03:40:41;13.00;99.90
20483;DHT22;10400;53.198;6.592;2023-09-30T03:43:13;12.90;99.90
20483;DHT22;10400;53.198;6.592;2023-09-30T03:45:40;12.90;99.90
20483;DHT22;10400;53.198;6.592;2023-09-30T03:48:06;12.90;99.90
20483;DHT22;10400;53.198;6.592;2023-09-30T03:50:32;12.90;99.90
20483;DHT22;10400;53.198;6.592;2023-09-30T03:53:05;12.90;99.90
20483;DHT22;10400;53.198;6.592;2023-09-30T03:55:33;13.00;99.90
20483;DHT22;10400;53.198;6.592;2023-09-30T03:57:59;13.00;99.90
20483;DHT22;10400;53.198;6.592;2023-09-30T04:00:25;12.90;99.90
20483;DHT22;10400;53.198;6.592;2023-09-30T04:02:53;13.00;99.90
20483;DHT22;10400;53.198;6.592;2023-09-30T04:05:23;12.90;99.90
20483;DHT22;10400;53.198;6.592;2023-09-30T04:07:55;12.90;99.90
20483;DHT22;10400;53.198;6.592;2023-09-30T04:10:21;13.00;99.90
20483;DHT22;10400;53.198;6.592;2023-09-30T04:12:48;12.90;99.90
20483;DHT22;10400;53.198;6.592;2023-09-30T04:15:14;12.90;99.90
20483;DHT22;10400;53.198;6.592;2023-09-30T04:17:40;12.90;99.90
20483;DHT22;10400;53.198;6.592;2023-09-30T04:20:07;12.90;99.90
20483;DHT22;10400;53.198;6.592;2023-09-30T04:22:42;12.90;99.90
20483;DHT22;10400;53.198;6.592;2023-09-30T04:25:11;12.90;99.90
20483;DHT22;10400;53.198;6.592;2023-09-30T04:27:37;12.90;99.90
20483;DHT22;10400;53.198;6.592;2023-09-30T04:30:04;12.90;99.90
20483;DHT22;10400;53.198;6.592;2023-09-30T04:32:35;13.00;99.90
20483;DHT22;10400;53.198;6.592;2023-09-30T04:35:03;12.90;99.90
20483;DHT22;10400;53.198;6.592;2023-09-30T04:37:28;12.90;99.90
20483;DHT22;10400;53.198;6.592;2023-09-30T04:39:54;12.90;99.90
20483;DHT22;10400;53.198;6.592;2023-09-30T04:42:20;12.90;99.90
20483;DHT22;10400;53.198;6.592;2023-09-30T04:44:45;12.90;99.90
20483;DHT22;10400;53.198;6.592;2023-09-30T04:47:11;12.90;99.90
20483;DHT22;10400;53.198;6.592;2023-09-30T04:49:37;12.90;99.90
20483;DHT22;10400;53.198;6.592;2023-09-30T04:52:03;12.90;99.90
20483;DHT22;10400;53.198;6.592;2023-09-30T04:54:30;13.00;99.90
20483;DHT22;10400;53.198;6.592;2023-09-30T04:56:56;12.90;99.90
20483;DHT22;10400;53.198;6.592;2023-09-30T04:59:21;12.90;99.90
20483;DHT22;10400;53.198;6.592;2023-09-30T05:01:50;12.90;99.90
20483;DHT22;10400;53.198;6.592;2023-09-30T05:04:16;12.90;99.90
20483;DHT22;10400;53.198;6.592;2023-09-30T05:06:43;12.90;99.90
20483;DHT22;10400;53.198;6.592;2023-09-30T05:09:08;12.80;99.90
20483;DHT22;10400;53.198;6.592;2023-09-30T05:11:35;12.90;99.90
20483;DHT22;10400;53.198;6.592;2023-09-30T05:14:01;12.80;99.90
20483;DHT22;10400;53.198;6.592;2023-09-30T05:16:26;12.80;99.90
20483;DHT22;10400;53.198;6.592;2023-09-30T05:18:52;12.80;99.90
20483;DHT22;10400;53.198;6.592;2023-09-30T05:21:18;12.80;99.90
20483;DHT22;10400;53.198;6.592;2023-09-30T05:23:43;12.80;99.90
20483;DHT22;10400;53.198;6.592;2023-09-30T05:26:09;12.80;99.90
20483;DHT22;10400;53.198;6.592;2023-09-30T05:28:35;12.70;99.90
20483;DHT22;10400;53.198;6.592;2023-09-30T05:31:00;12.70;99.90
20483;DHT22;10400;53.198;6.592;2023-09-30T05:33:27;12.70;99.90
20483;DHT22;10400;53.198;6.592;2023-09-30T05:35:53;12.70;99.90
20483;DHT22;10400;53.198;6.592;2023-09-30T05:38:20;12.70;99.90
20483;DHT22;10400;53.198;6.592;2023-09-30T05:40:46;12.70;99.90
20483;DHT22;10400;53.198;6.592;2023-09-30T05:43:11;12.70;99.90
20483;DHT22;10400;53.198;6.592;2023-09-30T05:45:39;12.70;99.90
20483;DHT22;10400;53.198;6.592;2023-09-30T05:48:14;12.70;99.90
20483;DHT22;10400;53.198;6.592;2023-09-30T05:50:41;12.70;99.90
20483;DHT22;10400;53.198;6.592;2023-09-30T05:53:08;12.70;99.90
20483;DHT22;10400;53.198;6.592;2023-09-30T05:55:36;12.60;99.90
20483;DHT22;10400;53.198;6.592;2023-09-30T05:58:03;12.60;99.90
20483;DHT22;10400;53.198;6.592;2023-09-30T06:00:28;12.60;99.90
20483;DHT22;10400;53.198;6.592;2023-09-30T06:02:56;12.60;99.90
20483;DHT22;10400;53.198;6.592;2023-09-30T06:05:22;12.60;99.90
20483;DHT22;10400;53.198;6.592;2023-09-30T06:07:49;12.60;99.90
20483;DHT22;10400;53.198;6.592;2023-09-30T06:10:14;12.60;99.90
20483;DHT22;10400;53.198;6.592;2023-09-30T06:12:47;12.60;99.90
20483;DHT22;10400;53.198;6.592;2023-09-30T06:15:16;12.60;99.90
20483;DHT22;10400;53.198;6.592;2023-09-30T06:17:47;12.60;99.90
20483;DHT22;10400;53.198;6.592;2023-09-30T06:20:13;12.60;99.90
20483;DHT22;10400;53.198;6.592;2023-09-30T06:22:44;12.60;99.90
20483;DHT22;10400;53.198;6.592;2023-09-30T06:25:15;12.60;99.90
20483;DHT22;10400;53.198;6.592;2023-09-30T06:27:47;12.70;99.90
20483;DHT22;10400;53.198;6.592;2023-09-30T06:30:14;12.70;99.90
20483;DHT22;10400;53.198;6.592;2023-09-30T06:32:41;12.70;99.90
20483;DHT22;10400;53.198;6.592;2023-09-30T06:35:08;12.70;99.90
20483;DHT22;10400;53.198;6.592;2023-09-30T06:37:39;12.80;99.90
20483;DHT22;10400;53.198;6.592;2023-09-30T06:40:06;12.80;99.90
20483;DHT22;10400;53.198;6.592;2023-09-30T06:42:33;12.80;99.90
20483;DHT22;10400;53.198;6.592;2023-09-30T06:44:59;12.90;99.90
20483;DHT22;10400;53.198;6.592;2023-09-30T06:47:25;13.00;99.90
20483;DHT22;10400;53.198;6.592;2023-09-30T06:49:53;13.10;99.90
20483;DHT22;10400;53.198;6.592;2023-09-30T06:52:19;13.10;99.90
20483;DHT22;10400;53.198;6.592;2023-09-30T06:54:45;13.20;99.90
20483;DHT22;10400;53.198;6.592;2023-09-30T06:57:11;13.20;99.90
20483;DHT22;10400;53.198;6.592;2023-09-30T06:59:36;13.20;99.90
20483;DHT22;10400;53.198;6.592;2023-09-30T07:02:03;13.30;99.90
20483;DHT22;10400;53.198;6.592;2023-09-30T07:04:29;13.30;99.90
20483;DHT22;10400;53.198;6.592;2023-09-30T07:06:55;13.40;99.90
20483;DHT22;10400;53.198;6.592;2023-09-30T07:09:21;13.40;99.90
20483;DHT22;10400;53.198;6.592;2023-09-30T07:11:47;13.50;99.90
20483;DHT22;10400;53.198;6.592;2023-09-30T07:14:14;13.60;99.90
20483;DHT22;10400;53.198;6.592;2023-09-30T07:16:40;13.70;99.90
20483;DHT22;10400;53.198;6.592;2023-09-30T07:19:06;13.80;99.90
20483;DHT22;10400;53.198;6.592;2023-09-30T07:21:31;13.80;99.90
20483;DHT22;10400;53.198;6.592;2023-09-30T07:24:00;13.90;99.90
20483;DHT22;10400;53.198;6.592;2023-09-30T07:26:26;14.00;99.90
20483;DHT22;10400;53.198;6.592;2023-09-30T07:28:53;14.00;99.90
20483;DHT22;10400;53.198;6.592;2023-09-30T07:31:26;14.00;99.90
20483;DHT22;10400;53.198;6.592;2023-09-30T07:33:52;14.00;99.90
20483;DHT22;10400;53.198;6.592;2023-09-30T07:36:18;14.10;99.90
20483;DHT22;10400;53.198;6.592;2023-09-30T07:38:43;14.10;99.90
20483;DHT22;10400;53.198;6.592;2023-09-30T07:41:09;14.20;99.90
20483;DHT22;10400;53.198;6.592;2023-09-30T07:43:35;14.20;99.90
20483;DHT22;10400;53.198;6.592;2023-09-30T07:46:06;14.30;99.90
20483;DHT22;10400;53.198;6.592;2023-09-30T07:48:32;14.30;99.90
20483;DHT22;10400;53.198;6.592;2023-09-30T07:50:58;14.40;99.90
20483;DHT22;10400;53.198;6.592;2023-09-30T07:53:23;14.50;99.90
20483;DHT22;10400;53.198;6.592;2023-09-30T07:55:49;14.50;99.90
20483;DHT22;10400;53.198;6.592;2023-09-30T07:58:15;14.60;99.90
20483;DHT22;10400;53.198;6.592;2023-09-30T08:00:40;14.60;99.90
20483;DHT22;10400;53.198;6.592;2023-09-30T08:03:08;14.60;99.90
20483;DHT22;10400;53.198;6.592;2023-09-30T08:05:34;14.70;99.90
20483;DHT22;10400;53.198;6.592;2023-09-30T08:08:01;14.80;99.90
20483;DHT22;10400;53.198;6.592;2023-09-30T08:10:27;14.90;99.90
20483;DHT22;10400;53.198;6.592;2023-09-30T08:12:55;14.90;99.90
20483;DHT22;10400;53.198;6.592;2023-09-30T08:15:23;15.00;99.90
20483;DHT22;10400;53.198;6.592;2023-09-30T08:17:48;15.10;99.90
20483;DHT22;10400;53.198;6.592;2023-09-30T08:20:14;15.20;99.90
20483;DHT22;10400;53.198;6.592;2023-09-30T08:22:40;15.30;99.90
20483;DHT22;10400;53.198;6.592;2023-09-30T08:25:06;15.30;99.90
20483;DHT22;10400;53.198;6.592;2023-09-30T08:27:32;15.30;99.90
20483;DHT22;10400;53.198;6.592;2023-09-30T08:29:58;15.40;99.90
20483;DHT22;10400;53.198;6.592;2023-09-30T08:32:24;15.50;99.90
20483;DHT22;10400;53.198;6.592;2023-09-30T08:34:50;15.60;99.90
20483;DHT22;10400;53.198;6.592;2023-09-30T08:37:15;15.70;99.90
20483;DHT22;10400;53.198;6.592;2023-09-30T08:39:42;15.80;99.90
20483;DHT22;10400;53.198;6.592;2023-09-30T08:42:09;15.90;99.90
20483;DHT22;10400;53.198;6.592;2023-09-30T08:44:38;16.00;99.90
20483;DHT22;10400;53.198;6.592;2023-09-30T08:47:06;16.10;99.90
20483;DHT22;10400;53.198;6.592;2023-09-30T08:49:40;16.20;99.90
20483;DHT22;10400;53.198;6.592;2023-09-30T08:52:09;16.20;99.90
20483;DHT22;10400;53.198;6.592;2023-09-30T08:54:36;16.40;99.90
20483;DHT22;10400;53.198;6.592;2023-09-30T08:57:03;16.50;99.90
20483;DHT22;10400;53.198;6.592;2023-09-30T08:59:31;16.50;99.90
20483;DHT22;10400;53.198;6.592;2023-09-30T09:01:57;16.70;99.90
20483;DHT22;10400;53.198;6.592;2023-09-30T09:04:24;16.70;99.90
20483;DHT22;10400;53.198;6.592;2023-09-30T09:06:50;16.90;99.90
20483;DHT22;10400;53.198;6.592;2023-09-30T09:09:19;16.80;99.90
20483;DHT22;10400;53.198;6.592;2023-09-30T09:11:47;16.90;99.90
20483;DHT22;10400;53.198;6.592;2023-09-30T09:14:14;16.90;99.90
20483;DHT22;10400;53.198;6.592;2023-09-30T09:16:56;17.00;99.90
20483;DHT22;10400;53.198;6.592;2023-09-30T09:19:22;17.00;99.90
20483;DHT22;10400;53.198;6.592;2023-09-30T09:21:55;17.10;99.90
20483;DHT22;10400;53.198;6.592;2023-09-30T09:24:38;17.20;99.90
20483;DHT22;10400;53.198;6.592;2023-09-30T09:27:13;17.20;99.90
20483;DHT22;10400;53.198;6.592;2023-09-30T09:29:42;17.20;99.90
20483;DHT22;10400;53.198;6.592;2023-09-30T09:32:11;17.30;99.90
20483;DHT22;10400;53.198;6.592;2023-09-30T09:34:38;17.40;99.90
20483;DHT22;10400;53.198;6.592;2023-09-30T09:37:20;17.50;99.90
20483;DHT22;10400;53.198;6.592;2023-09-30T09:39:57;17.50;99.90
20483;DHT22;10400;53.198;6.592;2023-09-30T09:42:31;17.60;99.90
20483;DHT22;10400;53.198;6.592;2023-09-30T09:45:02;17.70;99.90
20483;DHT22;10400;53.198;6.592;2023-09-30T09:47:29;17.70;99.90
20483;DHT22;10400;53.198;6.592;2023-09-30T09:49:57;17.70;99.90
20483;DHT22;10400;53.198;6.592;2023-09-30T09:52:23;17.70;99.90
20483;DHT22;10400;53.198;6.592;2023-09-30T09:54:50;17.70;99.90
20483;DHT22;10400;53.198;6.592;2023-09-30T09:57:17;17.80;99.90
20483;DHT22;10400;53.198;6.592;2023-09-30T09:59:47;17.90;99.90
20483;DHT22;10400;53.198;6.592;2023-09-30T10:02:14;18.00;99.90
20483;DHT22;10400;53.198;6.592;2023-09-30T10:04:49;18.00;99.90
20483;DHT22;10400;53.198;6.592;2023-09-30T10:07:39;18.20;99.90
20483;DHT22;10400;53.198;6.592;2023-09-30T10:10:13;18.30;99.90
20483;DHT22;10400;53.198;6.592;2023-09-30T10:12:40;18.30;99.90
20483;DHT22;10400;53.198;6.592;2023-09-30T10:18:06;18.70;99.90
20483;DHT22;10400;53.198;6.592;2023-09-30T10:20:34;18.80;99.90
20483;DHT22;10400;53.198;6.592;2023-09-30T10:23:25;18.60;99.90
20483;DHT22;10400;53.198;6.592;2023-09-30T10:26:13;18.50;99.90
20483;DHT22;10400;53.198;6.592;2023-09-30T10:28:42;18.40;99.90
20483;DHT22;10400;53.198;6.592;2023-09-30T10:31:18;18.40;99.90
20483;DHT22;10400;53.198;6.592;2023-09-30T10:36:29;18.40;99.90
20483;DHT22;10400;53.198;6.592;2023-09-30T10:38:55;18.40;99.90
20483;DHT22;10400;53.198;6.592;2023-09-30T10:46:54;18.60;95.20
20483;DHT22;10400;53.198;6.592;2023-09-30T10:51:56;18.50;92.90
20483;DHT22;10400;53.198;6.592;2023-09-30T10:54:28;18.40;93.70
20483;DHT22;10400;53.198;6.592;2023-09-30T10:56:54;18.30;94.00
20483;DHT22;10400;53.198;6.592;2023-09-30T10:59:24;18.40;90.80
20483;DHT22;10400;53.198;6.592;2023-09-30T11:01:51;18.60;75.60
20483;DHT22;10400;53.198;6.592;2023-09-30T11:04:20;18.60;70.40
20483;DHT22;10400;53.198;6.592;2023-09-30T11:06:46;18.70;51.10
20483;DHT22;10400;53.198;6.592;2023-09-30T11:09:22;18.80;38.30
20483;DHT22;10400;53.198;6.592;2023-09-30T11:11:50;18.90;46.50
20483;DHT22;10400;53.198;6.592;2023-09-30T11:16:45;19.30;38.70
20483;DHT22;10400;53.198;6.592;2023-09-30T11:19:12;19.40;15.80
20483;DHT22;10400;53.198;6.592;2023-09-30T11:21:39;19.60;8.40
20483;DHT22;10400;53.198;6.592;2023-09-30T11:24:05;19.60;1.00
20483;DHT22;10400;53.198;6.592;2023-09-30T11:26:32;19.60;1.00
20483;DHT22;10400;53.198;6.592;2023-09-30T11:29:14;19.60;1.00
20483;DHT22;10400;53.198;6.592;2023-09-30T11:31:45;19.50;1.00
20483;DHT22;10400;53.198;6.592;2023-09-30T11:34:12;19.50;1.00
20483;DHT22;10400;53.198;6.592;2023-09-30T11:36:48;19.40;1.00
20483;DHT22;10400;53.198;6.592;2023-09-30T11:39:29;19.20;1.00
20483;DHT22;10400;53.198;6.592;2023-09-30T11:41:55;19.10;1.00
20483;DHT22;10400;53.198;6.592;2023-09-30T11:44:23;18.90;1.00
20483;DHT22;10400;53.198;6.592;2023-09-30T11:46:54;18.70;1.00
20483;DHT22;10400;53.198;6.592;2023-09-30T11:51:53;18.40;20.10
20483;DHT22;10400;53.198;6.592;2023-09-30T11:54:19;18.40;19.80
20483;DHT22;10400;53.198;6.592;2023-09-30T11:56:47;18.30;29.60
20483;DHT22;10400;53.198;6.592;2023-09-30T11:59:13;18.20;36.00
20483;DHT22;10400;53.198;6.592;2023-09-30T12:01:39;18.10;51.50
20483;DHT22;10400;53.198;6.592;2023-09-30T12:04:05;18.10;50.00
20483;DHT22;10400;53.198;6.592;2023-09-30T12:06:32;18.00;42.80
20483;DHT22;10400;53.198;6.592;2023-09-30T12:08:59;18.00;61.30
20483;DHT22;10400;53.198;6.592;2023-09-30T12:11:25;18.00;62.70
20483;DHT22;10400;53.198;6.592;2023-09-30T12:13:51;18.00;60.70
20483;DHT22;10400;53.198;6.592;2023-09-30T12:16:19;18.10;56.70
20483;DHT22;10400;53.198;6.592;2023-09-30T12:18:45;18.20;51.20
20483;DHT22;10400;53.198;6.592;2023-09-30T12:21:11;18.30;50.60
20483;DHT22;10400;53.198;6.592;2023-09-30T12:23:39;18.50;39.70
20483;DHT22;10400;53.198;6.592;2023-09-30T12:26:05;18.80;28.00
20483;DHT22;10400;53.198;6.592;2023-09-30T12:28:32;19.20;10.10
20483;DHT22;10400;53.198;6.592;2023-09-30T12:30:58;19.60;1.00
20483;DHT22;10400;53.198;6.592;2023-09-30T12:33:24;19.90;1.00
20483;DHT22;10400;53.198;6.592;2023-09-30T12:35:50;20.10;1.00
20483;DHT22;10400;53.198;6.592;2023-09-30T12:38:17;20.10;1.00
20483;DHT22;10400;53.198;6.592;2023-09-30T12:40:42;20.10;1.00
20483;DHT22;10400;53.198;6.592;2023-09-30T12:43:09;20.00;1.00
20483;DHT22;10400;53.198;6.592;2023-09-30T12:45:36;19.80;1.00
20483;DHT22;10400;53.198;6.592;2023-09-30T12:48:04;19.50;1.00
20483;DHT22;10400;53.198;6.592;2023-09-30T12:50:31;19.40;1.00
20483;DHT22;10400;53.198;6.592;2023-09-30T12:52:56;19.50;1.00
20483;DHT22;10400;53.198;6.592;2023-09-30T12:55:22;19.40;1.00
20483;DHT22;10400;53.198;6.592;2023-09-30T12:57:48;19.50;1.00
20483;DHT22;10400;53.198;6.592;2023-09-30T13:00:13;19.60;1.00
20483;DHT22;10400;53.198;6.592;2023-09-30T13:02:41;19.60;1.00
20483;DHT22;10400;53.198;6.592;2023-09-30T13:05:08;19.60;1.00
20483;DHT22;10400;53.198;6.592;2023-09-30T13:07:34;19.60;1.00
20483;DHT22;10400;53.198;6.592;2023-09-30T13:10:00;19.60;1.00
20483;DHT22;10400;53.198;6.592;2023-09-30T13:12:26;19.60;1.00
20483;DHT22;10400;53.198;6.592;2023-09-30T13:14:52;19.70;1.00
20483;DHT22;10400;53.198;6.592;2023-09-30T13:17:22;19.80;1.00
20483;DHT22;10400;53.198;6.592;2023-09-30T13:19:47;20.00;1.00
20483;DHT22;10400;53.198;6.592;2023-09-30T13:22:13;20.00;1.00
20483;DHT22;10400;53.198;6.592;2023-09-30T13:24:42;20.10;1.00
20483;DHT22;10400;53.198;6.592;2023-09-30T13:27:08;20.00;99.90
20483;DHT22;10400;53.198;6.592;2023-09-30T13:29:33;20.00;99.90
20483;DHT22;10400;53.198;6.592;2023-09-30T13:31:59;20.10;1.00
20483;DHT22;10400;53.198;6.592;2023-09-30T13:34:25;20.10;5.40
20483;DHT22;10400;53.198;6.592;2023-09-30T13:36:51;20.00;41.30
20483;DHT22;10400;53.198;6.592;2023-09-30T13:39:16;19.80;1.00
20483;DHT22;10400;53.198;6.592;2023-09-30T13:41:43;20.00;1.00
20483;DHT22;10400;53.198;6.592;2023-09-30T13:44:11;20.00;1.00
20483;DHT22;10400;53.198;6.592;2023-09-30T13:46:37;20.00;99.90
20483;DHT22;10400;53.198;6.592;2023-09-30T13:49:03;19.90;1.00
20483;DHT22;10400;53.198;6.592;2023-09-30T13:51:29;19.90;99.90
20483;DHT22;10400;53.198;6.592;2023-09-30T13:53:55;19.80;1.00
20483;DHT22;10400;53.198;6.592;2023-09-30T13:56:20;19.80;1.00
20483;DHT22;10400;53.198;6.592;2023-09-30T13:58:46;20.00;99.90
20483;DHT22;10400;53.198;6.592;2023-09-30T14:01:14;20.10;1.00
20483;DHT22;10400;53.198;6.592;2023-09-30T14:03:40;20.10;73.90
20483;DHT22;10400;53.198;6.592;2023-09-30T14:06:10;20.10;1.00
20483;DHT22;10400;53.198;6.592;2023-09-30T14:08:36;20.10;1.00
20483;DHT22;10400;53.198;6.592;2023-09-30T14:11:02;20.10;99.90
20483;DHT22;10400;53.198;6.592;2023-09-30T14:13:27;20.10;1.00
20483;DHT22;10400;53.198;6.592;2023-09-30T14:15:53;20.10;1.00
20483;DHT22;10400;53.198;6.592;2023-09-30T14:18:19;20.10;1.00
20483;DHT22;10400;53.198;6.592;2023-09-30T14:20:44;20.00;32.90
20483;DHT22;10400;53.198;6.592;2023-09-30T14:23:11;20.00;1.00
20483;DHT22;10400;53.198;6.592;2023-09-30T14:25:37;19.90;1.00
20483;DHT22;10400;53.198;6.592;2023-09-30T14:28:03;19.90;1.00
20483;DHT22;10400;53.198;6.592;2023-09-30T14:30:29;19.90;1.00
20483;DHT22;10400;53.198;6.592;2023-09-30T14:32:55;19.90;90.60
20483;DHT22;10400;53.198;6.592;2023-09-30T14:35:20;19.90;1.00
20483;DHT22;10400;53.198;6.592;2023-09-30T14:37:46;19.90;99.90
20483;DHT22;10400;53.198;6.592;2023-09-30T14:40:11;19.90;99.90
20483;DHT22;10400;53.198;6.592;2023-09-30T14:42:38;19.80;99.90
20483;DHT22;10400;53.198;6.592;2023-09-30T14:45:04;19.80;1.00
20483;DHT22;10400;53.198;6.592;2023-09-30T14:47:30;19.80;37.90
20483;DHT22;10400;53.198;6.592;2023-09-30T14:49:56;19.70;99.90
20483;DHT22;10400;53.198;6.592;2023-09-30T14:52:21;19.80;99.90
20483;DHT22;10400;53.198;6.592;2023-09-30T14:54:47;19.70;99.90
20483;DHT22;10400;53.198;6.592;2023-09-30T14:57:13;19.70;1.00
20483;DHT22;10400;53.198;6.592;2023-09-30T14:59:41;19.60;1.00
20483;DHT22;10400;53.198;6.592;2023-09-30T15:02:07;19.60;99.90
20483;DHT22;10400;53.198;6.592;2023-09-30T15:04:36;19.60;99.90
20483;DHT22;10400;53.198;6.592;2023-09-30T15:07:02;19.60;99.90
20483;DHT22;10400;53.198;6.592;2023-09-30T15:09:28;19.50;1.00
20483;DHT22;10400;53.198;6.592;2023-09-30T15:11:54;19.40;1.00
20483;DHT22;10400;53.198;6.592;2023-09-30T15:14:20;19.40;99.90
20483;DHT22;10400;53.198;6.592;2023-09-30T15:16:46;19.30;99.90
20483;DHT22;10400;53.198;6.592;2023-09-30T15:19:11;19.20;99.90
20483;DHT22;10400;53.198;6.592;2023-09-30T15:21:37;19.20;99.90
20483;DHT22;10400;53.198;6.592;2023-09-30T15:24:04;19.20;99.90
20483;DHT22;10400;53.198;6.592;2023-09-30T15:26:30;19.10;23.70
20483;DHT22;10400;53.198;6.592;2023-09-30T15:28:57;19.10;99.90
20483;DHT22;10400;53.198;6.592;2023-09-30T15:31:29;19.10;99.90
20483;DHT22;10400;53.198;6.592;2023-09-30T15:34:04;19.10;99.90
20483;DHT22;10400;53.198;6.592;2023-09-30T15:36:33;19.10;99.90
20483;DHT22;10400;53.198;6.592;2023-09-30T15:38:59;19.10;99.90
20483;DHT22;10400;53.198;6.592;2023-09-30T15:41:26;19.10;1.00
20483;DHT22;10400;53.198;6.592;2023-09-30T15:43:52;19.00;1.00
20483;DHT22;10400;53.198;6.592;2023-09-30T15:46:18;19.00;1.00
20483;DHT22;10400;53.198;6.592;2023-09-30T15:48:44;19.00;1.00
20483;DHT22;10400;53.198;6.592;2023-09-30T15:51:10;19.00;1.00